sensor_id;sensor_type;location;lat;lon;timestamp;P1;durP1;ratioP1;P2;durP2;ratioP2
58063;SDS011;43851;55.856;37.186;2022-07-09T00:02:04;10.32;;;5.88;;
58063;SDS011;43851;55.856;37.186;2022-07-09T00:04:30;6.53;;;4.45;;
58063;SDS011;43851;55.856;37.186;2022-07-09T00:06:56;7.00;;;3.90;;
58063;SDS011;43851;55.856;37.186;2022-07-09T00:09:23;11.65;;;4.82;;
58063;SDS011;43851;55.856;37.186;2022-07-09T00:11:49;10.63;;;4.07;;
58063;SDS011;43851;55.856;37.186;2022-07-09T00:14:15;5.15;;;3.88;;
58063;SDS011;43851;55.856;37.186;2022-07-09T00:16:41;6.97;;;4.18;;
58063;SDS011;43851;55.856;37.186;2022-07-09T00:19:06;10.95;;;4.03;;
58063;SDS011;43851;55.856;37.186;2022-07-09T00:21:32;8.38;;;4.88;;
58063;SDS011;43851;55.856;37.186;2022-07-09T00:23:58;12.07;;;3.95;;
58063;SDS011;43851;55.856;37.186;2022-07-09T00:26:24;6.75;;;4.38;;
58063;SDS011;43851;55.856;37.186;2022-07-09T00:28:51;8.35;;;4.68;;
58063;SDS011;43851;55.856;37.186;2022-07-09T00:31:16;8.18;;;4.95;;
58063;SDS011;43851;55.856;37.186;2022-07-09T00:33:42;8.45;;;3.95;;
58063;SDS011;43851;55.856;37.186;2022-07-09T00:36:08;9.82;;;4.10;;
58063;SDS011;43851;55.856;37.186;2022-07-09T00:38:34;8.18;;;4.28;;
58063;SDS011;43851;55.856;37.186;2022-07-09T00:41:00;8.80;;;5.10;;
58063;SDS011;43851;55.856;37.186;2022-07-09T00:43:26;5.55;;;4.00;;
58063;SDS011;43851;55.856;37.186;2022-07-09T00:45:52;8.93;;;4.28;;
58063;SDS011;43851;55.856;37.186;2022-07-09T00:48:18;5.63;;;3.47;;
58063;SDS011;43851;55.856;37.186;2022-07-09T00:50:45;5.68;;;3.58;;
58063;SDS011;43851;55.856;37.186;2022-07-09T00:53:12;4.25;;;3.50;;
58063;SDS011;43851;55.856;37.186;2022-07-09T00:55:40;8.20;;;4.32;;
58063;SDS011;43851;55.856;37.186;2022-07-09T00:58:06;5.68;;;4.47;;
58063;SDS011;43851;55.856;37.186;2022-07-09T01:00:34;6.72;;;4.13;;
58063;SDS011;43851;55.856;37.186;2022-07-09T01:03:00;8.70;;;4.53;;
58063;SDS011;43851;55.856;37.186;2022-07-09T01:05:26;7.78;;;4.30;;
58063;SDS011;43851;55.856;37.186;2022-07-09T01:07:52;8.98;;;4.57;;
58063;SDS011;43851;55.856;37.186;2022-07-09T01:10:18;7.25;;;4.20;;
58063;SDS011;43851;55.856;37.186;2022-07-09T01:12:44;7.30;;;4.10;;
58063;SDS011;43851;55.856;37.186;2022-07-09T01:15:10;8.90;;;3.95;;
58063;SDS011;43851;55.856;37.186;2022-07-09T01:17:39;8.05;;;3.55;;
58063;SDS011;43851;55.856;37.186;2022-07-09T01:20:05;7.43;;;4.05;;
58063;SDS011;43851;55.856;37.186;2022-07-09T01:22:32;6.32;;;4.65;;
58063;SDS011;43851;55.856;37.186;2022-07-09T01:25:00;16.40;;;4.60;;
58063;SDS011;43851;55.856;37.186;2022-07-09T01:27:28;15.60;;;11.00;;
58063;SDS011;43851;55.856;37.186;2022-07-09T01:29:54;7.28;;;4.07;;
58063;SDS011;43851;55.856;37.186;2022-07-09T01:32:19;7.93;;;4.60;;
58063;SDS011;43851;55.856;37.186;2022-07-09T01:34:45;9.38;;;4.60;;
58063;SDS011;43851;55.856;37.186;2022-07-09T01:37:11;7.13;;;3.70;;
58063;SDS011;43851;55.856;37.186;2022-07-09T01:39:38;7.55;;;4.75;;
58063;SDS011;43851;55.856;37.186;2022-07-09T01:42:16;6.40;;;3.92;;
58063;SDS011;43851;55.856;37.186;2022-07-09T01:44:42;9.18;;;4.93;;
58063;SDS011;43851;55.856;37.186;2022-07-09T01:47:08;7.78;;;4.15;;
58063;SDS011;43851;55.856;37.186;2022-07-09T01:49:34;8.75;;;4.82;;
58063;SDS011;43851;55.856;37.186;2022-07-09T01:52:00;8.07;;;4.55;;
58063;SDS011;43851;55.856;37.186;2022-07-09T01:54:25;8.40;;;3.95;;
58063;SDS011;43851;55.856;37.186;2022-07-09T01:56:51;10.43;;;4.55;;
58063;SDS011;43851;55.856;37.186;2022-07-09T01:59:17;12.10;;;5.05;;
58063;SDS011;43851;55.856;37.186;2022-07-09T02:01:43;10.10;;;4.85;;
58063;SDS011;43851;55.856;37.186;2022-07-09T02:04:08;8.35;;;4.55;;
58063;SDS011;43851;55.856;37.186;2022-07-09T02:06:34;8.45;;;6.00;;
58063;SDS011;43851;55.856;37.186;2022-07-09T02:09:00;7.18;;;4.18;;
58063;SDS011;43851;55.856;37.186;2022-07-09T02:11:25;11.50;;;4.30;;
58063;SDS011;43851;55.856;37.186;2022-07-09T02:13:51;10.27;;;4.50;;
58063;SDS011;43851;55.856;37.186;2022-07-09T02:16:17;10.07;;;4.05;;
58063;SDS011;43851;55.856;37.186;2022-07-09T02:18:43;10.02;;;3.70;;
58063;SDS011;43851;55.856;37.186;2022-07-09T02:21:09;5.05;;;3.45;;
58063;SDS011;43851;55.856;37.186;2022-07-09T02:23:35;7.28;;;4.15;;
58063;SDS011;43851;55.856;37.186;2022-07-09T02:26:01;5.63;;;3.97;;
58063;SDS011;43851;55.856;37.186;2022-07-09T02:28:27;10.30;;;4.00;;
58063;SDS011;43851;55.856;37.186;2022-07-09T02:30:52;7.53;;;3.83;;
58063;SDS011;43851;55.856;37.186;2022-07-09T02:33:19;15.15;;;4.10;;
58063;SDS011;43851;55.856;37.186;2022-07-09T02:35:45;12.68;;;4.35;;
58063;SDS011;43851;55.856;37.186;2022-07-09T02:38:11;6.20;;;3.22;;
58063;SDS011;43851;55.856;37.186;2022-07-09T02:40:37;9.18;;;3.67;;
58063;SDS011;43851;55.856;37.186;2022-07-09T02:43:03;5.90;;;3.95;;
58063;SDS011;43851;55.856;37.186;2022-07-09T02:45:29;6.47;;;4.05;;
58063;SDS011;43851;55.856;37.186;2022-07-09T02:47:54;5.93;;;3.72;;
58063;SDS011;43851;55.856;37.186;2022-07-09T02:50:20;6.35;;;3.85;;
58063;SDS011;43851;55.856;37.186;2022-07-09T02:52:46;8.07;;;3.53;;
58063;SDS011;43851;55.856;37.186;2022-07-09T02:55:12;8.43;;;3.78;;
58063;SDS011;43851;55.856;37.186;2022-07-09T02:57:38;6.40;;;3.47;;
58063;SDS011;43851;55.856;37.186;2022-07-09T03:00:04;6.68;;;3.33;;
58063;SDS011;43851;55.856;37.186;2022-07-09T03:02:30;6.30;;;3.60;;
58063;SDS011;43851;55.856;37.186;2022-07-09T03:04:56;8.32;;;3.80;;
58063;SDS011;43851;55.856;37.186;2022-07-09T03:07:21;12.60;;;3.55;;
58063;SDS011;43851;55.856;37.186;2022-07-09T03:09:48;6.95;;;3.45;;
58063;SDS011;43851;55.856;37.186;2022-07-09T03:12:14;9.02;;;3.83;;
58063;SDS011;43851;55.856;37.186;2022-07-09T03:14:40;6.40;;;4.20;;
58063;SDS011;43851;55.856;37.186;2022-07-09T03:17:06;11.38;;;3.85;;
58063;SDS011;43851;55.856;37.186;2022-07-09T03:19:32;7.65;;;3.63;;
58063;SDS011;43851;55.856;37.186;2022-07-09T03:21:58;4.93;;;3.50;;
58063;SDS011;43851;55.856;37.186;2022-07-09T03:24:23;10.48;;;3.40;;
58063;SDS011;43851;55.856;37.186;2022-07-09T03:26:49;6.50;;;3.35;;
58063;SDS011;43851;55.856;37.186;2022-07-09T03:29:15;8.60;;;2.92;;
58063;SDS011;43851;55.856;37.186;2022-07-09T03:31:41;6.53;;;3.08;;
58063;SDS011;43851;55.856;37.186;2022-07-09T03:34:07;6.68;;;3.40;;
58063;SDS011;43851;55.856;37.186;2022-07-09T03:36:33;9.35;;;3.53;;
58063;SDS011;43851;55.856;37.186;2022-07-09T03:38:59;6.50;;;3.10;;
58063;SDS011;43851;55.856;37.186;2022-07-09T03:41:25;4.68;;;3.17;;
58063;SDS011;43851;55.856;37.186;2022-07-09T03:43:51;7.40;;;3.20;;
58063;SDS011;43851;55.856;37.186;2022-07-09T03:46:17;6.88;;;3.70;;
58063;SDS011;43851;55.856;37.186;2022-07-09T03:48:43;8.18;;;3.88;;
58063;SDS011;43851;55.856;37.186;2022-07-09T03:51:08;5.97;;;3.72;;
58063;SDS011;43851;55.856;37.186;2022-07-09T03:53:34;8.02;;;3.83;;
58063;SDS011;43851;55.856;37.186;2022-07-09T03:56:01;6.00;;;3.72;;
58063;SDS011;43851;55.856;37.186;2022-07-09T03:58:27;7.15;;;2.97;;
58063;SDS011;43851;55.856;37.186;2022-07-09T04:00:52;12.00;;;4.28;;
58063;SDS011;43851;55.856;37.186;2022-07-09T04:03:20;8.88;;;3.97;;
58063;SDS011;43851;55.856;37.186;2022-07-09T04:05:45;5.78;;;4.00;;
58063;SDS011;43851;55.856;37.186;2022-07-09T04:08:11;8.07;;;4.70;;
58063;SDS011;43851;55.856;37.186;2022-07-09T04:10:37;10.45;;;4.18;;
58063;SDS011;43851;55.856;37.186;2022-07-09T04:13:02;7.18;;;4.40;;
58063;SDS011;43851;55.856;37.186;2022-07-09T04:15:28;10.68;;;6.13;;
58063;SDS011;43851;55.856;37.186;2022-07-09T04:17:54;11.45;;;5.65;;
58063;SDS011;43851;55.856;37.186;2022-07-09T04:20:20;9.13;;;5.45;;
58063;SDS011;43851;55.856;37.186;2022-07-09T04:22:46;9.20;;;5.57;;
58063;SDS011;43851;55.856;37.186;2022-07-09T04:25:12;8.13;;;5.03;;
58063;SDS011;43851;55.856;37.186;2022-07-09T04:27:37;9.45;;;5.65;;
58063;SDS011;43851;55.856;37.186;2022-07-09T04:30:05;11.77;;;5.63;;
58063;SDS011;43851;55.856;37.186;2022-07-09T04:32:35;10.68;;;4.93;;
58063;SDS011;43851;55.856;37.186;2022-07-09T04:35:02;9.32;;;4.65;;
58063;SDS011;43851;55.856;37.186;2022-07-09T04:37:29;13.07;;;5.30;;
58063;SDS011;43851;55.856;37.186;2022-07-09T04:39:54;13.07;;;4.60;;
58063;SDS011;43851;55.856;37.186;2022-07-09T04:42:20;10.45;;;5.53;;
58063;SDS011;43851;55.856;37.186;2022-07-09T04:44:46;14.32;;;5.70;;
58063;SDS011;43851;55.856;37.186;2022-07-09T04:47:12;11.18;;;6.68;;
58063;SDS011;43851;55.856;37.186;2022-07-09T04:49:38;15.18;;;6.07;;
58063;SDS011;43851;55.856;37.186;2022-07-09T04:52:04;13.35;;;6.47;;
58063;SDS011;43851;55.856;37.186;2022-07-09T04:54:31;9.80;;;6.30;;
58063;SDS011;43851;55.856;37.186;2022-07-09T04:56:56;8.95;;;6.22;;
58063;SDS011;43851;55.856;37.186;2022-07-09T04:59:22;11.82;;;6.32;;
58063;SDS011;43851;55.856;37.186;2022-07-09T05:01:48;12.57;;;6.55;;
58063;SDS011;43851;55.856;37.186;2022-07-09T05:04:15;11.38;;;6.22;;
58063;SDS011;43851;55.856;37.186;2022-07-09T05:06:41;11.20;;;6.35;;
58063;SDS011;43851;55.856;37.186;2022-07-09T05:09:07;15.73;;;6.22;;
58063;SDS011;43851;55.856;37.186;2022-07-09T05:11:33;11.15;;;6.35;;
58063;SDS011;43851;55.856;37.186;2022-07-09T05:13:59;11.95;;;6.90;;
58063;SDS011;43851;55.856;37.186;2022-07-09T05:16:25;10.70;;;5.57;;
58063;SDS011;43851;55.856;37.186;2022-07-09T05:18:51;12.90;;;6.40;;
58063;SDS011;43851;55.856;37.186;2022-07-09T05:21:17;12.43;;;6.65;;
58063;SDS011;43851;55.856;37.186;2022-07-09T05:23:42;9.43;;;6.20;;
58063;SDS011;43851;55.856;37.186;2022-07-09T05:26:08;13.10;;;7.10;;
58063;SDS011;43851;55.856;37.186;2022-07-09T05:28:34;16.42;;;7.57;;
58063;SDS011;43851;55.856;37.186;2022-07-09T05:31:00;10.30;;;6.03;;
58063;SDS011;43851;55.856;37.186;2022-07-09T05:33:26;11.52;;;6.53;;
58063;SDS011;43851;55.856;37.186;2022-07-09T05:35:52;13.90;;;5.68;;
58063;SDS011;43851;55.856;37.186;2022-07-09T05:38:18;10.82;;;6.15;;
58063;SDS011;43851;55.856;37.186;2022-07-09T05:40:44;8.32;;;4.50;;
58063;SDS011;43851;55.856;37.186;2022-07-09T05:43:10;9.20;;;5.50;;
58063;SDS011;43851;55.856;37.186;2022-07-09T05:45:36;12.27;;;4.63;;
58063;SDS011;43851;55.856;37.186;2022-07-09T05:48:01;6.65;;;4.00;;
58063;SDS011;43851;55.856;37.186;2022-07-09T05:50:27;9.60;;;4.30;;
58063;SDS011;43851;55.856;37.186;2022-07-09T05:52:53;7.05;;;3.90;;
58063;SDS011;43851;55.856;37.186;2022-07-09T05:55:19;7.10;;;3.10;;
58063;SDS011;43851;55.856;37.186;2022-07-09T05:57:44;6.60;;;2.90;;
58063;SDS011;43851;55.856;37.186;2022-07-09T06:00:11;4.97;;;2.65;;
58063;SDS011;43851;55.856;37.186;2022-07-09T06:02:37;9.30;;;4.22;;
58063;SDS011;43851;55.856;37.186;2022-07-09T06:05:03;8.73;;;4.65;;
58063;SDS011;43851;55.856;37.186;2022-07-09T06:07:29;7.03;;;3.72;;
58063;SDS011;43851;55.856;37.186;2022-07-09T06:09:55;5.00;;;3.78;;
58063;SDS011;43851;55.856;37.186;2022-07-09T06:12:21;8.98;;;3.75;;
58063;SDS011;43851;55.856;37.186;2022-07-09T06:14:47;6.07;;;3.30;;
58063;SDS011;43851;55.856;37.186;2022-07-09T06:17:13;6.93;;;4.18;;
58063;SDS011;43851;55.856;37.186;2022-07-09T06:19:38;12.32;;;5.22;;
58063;SDS011;43851;55.856;37.186;2022-07-09T06:22:04;8.40;;;5.40;;
58063;SDS011;43851;55.856;37.186;2022-07-09T06:24:30;12.07;;;5.53;;
58063;SDS011;43851;55.856;37.186;2022-07-09T06:26:56;8.85;;;4.88;;
58063;SDS011;43851;55.856;37.186;2022-07-09T06:29:22;9.05;;;5.03;;
58063;SDS011;43851;55.856;37.186;2022-07-09T06:31:48;10.65;;;5.28;;
58063;SDS011;43851;55.856;37.186;2022-07-09T06:34:14;9.98;;;5.25;;
58063;SDS011;43851;55.856;37.186;2022-07-09T06:36:40;8.77;;;5.43;;
58063;SDS011;43851;55.856;37.186;2022-07-09T06:39:10;8.30;;;5.05;;
58063;SDS011;43851;55.856;37.186;2022-07-09T06:42:05;10.38;;;4.80;;
58063;SDS011;43851;55.856;37.186;2022-07-09T06:44:32;9.57;;;4.45;;
58063;SDS011;43851;55.856;37.186;2022-07-09T06:46:58;8.13;;;4.07;;
58063;SDS011;43851;55.856;37.186;2022-07-09T06:49:24;7.03;;;4.30;;
58063;SDS011;43851;55.856;37.186;2022-07-09T06:51:50;9.70;;;4.88;;
58063;SDS011;43851;55.856;37.186;2022-07-09T06:54:16;11.40;;;4.40;;
58063;SDS011;43851;55.856;37.186;2022-07-09T06:56:42;8.30;;;5.13;;
58063;SDS011;43851;55.856;37.186;2022-07-09T06:59:07;7.40;;;4.78;;
58063;SDS011;43851;55.856;37.186;2022-07-09T07:01:33;10.80;;;4.10;;
58063;SDS011;43851;55.856;37.186;2022-07-09T07:03:59;6.95;;;4.75;;
58063;SDS011;43851;55.856;37.186;2022-07-09T07:06:25;8.23;;;4.78;;
58063;SDS011;43851;55.856;37.186;2022-07-09T07:08:51;7.65;;;4.13;;
58063;SDS011;43851;55.856;37.186;2022-07-09T07:11:17;6.32;;;4.68;;
58063;SDS011;43851;55.856;37.186;2022-07-09T07:13:42;8.63;;;4.75;;
58063;SDS011;43851;55.856;37.186;2022-07-09T07:16:08;6.22;;;4.30;;
58063;SDS011;43851;55.856;37.186;2022-07-09T07:18:34;10.18;;;4.28;;
58063;SDS011;43851;55.856;37.186;2022-07-09T07:21:00;8.30;;;4.20;;
58063;SDS011;43851;55.856;37.186;2022-07-09T07:23:26;7.75;;;3.78;;
58063;SDS011;43851;55.856;37.186;2022-07-09T07:25:51;8.52;;;4.82;;
58063;SDS011;43851;55.856;37.186;2022-07-09T07:28:17;12.05;;;4.25;;
58063;SDS011;43851;55.856;37.186;2022-07-09T07:30:43;7.80;;;4.47;;
58063;SDS011;43851;55.856;37.186;2022-07-09T07:33:09;6.47;;;4.30;;
58063;SDS011;43851;55.856;37.186;2022-07-09T07:35:34;9.77;;;4.00;;
58063;SDS011;43851;55.856;37.186;2022-07-09T07:38:00;6.55;;;3.85;;
58063;SDS011;43851;55.856;37.186;2022-07-09T07:40:26;7.05;;;3.80;;
58063;SDS011;43851;55.856;37.186;2022-07-09T07:42:52;9.77;;;3.72;;
58063;SDS011;43851;55.856;37.186;2022-07-09T07:45:18;10.20;;;5.05;;
58063;SDS011;43851;55.856;37.186;2022-07-09T07:47:43;10.57;;;4.22;;
58063;SDS011;43851;55.856;37.186;2022-07-09T07:50:09;9.93;;;4.43;;
58063;SDS011;43851;55.856;37.186;2022-07-09T07:52:35;9.43;;;4.15;;
58063;SDS011;43851;55.856;37.186;2022-07-09T07:55:01;5.03;;;4.05;;
58063;SDS011;43851;55.856;37.186;2022-07-09T07:57:28;10.95;;;4.22;;
58063;SDS011;43851;55.856;37.186;2022-07-09T07:59:54;5.82;;;3.58;;
58063;SDS011;43851;55.856;37.186;2022-07-09T08:02:20;11.00;;;3.65;;
58063;SDS011;43851;55.856;37.186;2022-07-09T08:04:46;8.93;;;3.33;;
58063;SDS011;43851;55.856;37.186;2022-07-09T08:07:12;7.25;;;3.42;;
58063;SDS011;43851;55.856;37.186;2022-07-09T08:09:37;7.45;;;3.45;;
58063;SDS011;43851;55.856;37.186;2022-07-09T08:12:03;5.00;;;3.10;;
58063;SDS011;43851;55.856;37.186;2022-07-09T08:14:29;4.78;;;3.13;;
58063;SDS011;43851;55.856;37.186;2022-07-09T08:16:55;5.13;;;2.85;;
58063;SDS011;43851;55.856;37.186;2022-07-09T08:19:21;5.75;;;3.13;;
58063;SDS011;43851;55.856;37.186;2022-07-09T08:21:46;4.65;;;3.20;;
58063;SDS011;43851;55.856;37.186;2022-07-09T08:24:12;5.05;;;3.47;;
58063;SDS011;43851;55.856;37.186;2022-07-09T08:26:38;5.78;;;2.70;;
58063;SDS011;43851;55.856;37.186;2022-07-09T08:29:04;5.30;;;3.50;;
58063;SDS011;43851;55.856;37.186;2022-07-09T08:31:30;4.93;;;3.63;;
58063;SDS011;43851;55.856;37.186;2022-07-09T08:33:56;8.15;;;4.72;;
58063;SDS011;43851;55.856;37.186;2022-07-09T08:36:21;7.55;;;3.85;;
58063;SDS011;43851;55.856;37.186;2022-07-09T08:38:47;10.05;;;4.68;;
58063;SDS011;43851;55.856;37.186;2022-07-09T08:41:15;6.18;;;4.35;;
58063;SDS011;43851;55.856;37.186;2022-07-09T08:43:44;9.45;;;5.03;;
58063;SDS011;43851;55.856;37.186;2022-07-09T08:46:15;10.98;;;5.70;;
58063;SDS011;43851;55.856;37.186;2022-07-09T08:48:41;8.85;;;5.20;;
58063;SDS011;43851;55.856;37.186;2022-07-09T08:51:09;7.40;;;5.95;;
58063;SDS011;43851;55.856;37.186;2022-07-09T08:53:38;10.60;;;6.72;;
58063;SDS011;43851;55.856;37.186;2022-07-09T08:56:06;9.82;;;6.60;;
58063;SDS011;43851;55.856;37.186;2022-07-09T08:58:32;8.40;;;7.38;;
58063;SDS011;43851;55.856;37.186;2022-07-09T09:00:58;9.27;;;7.13;;
58063;SDS011;43851;55.856;37.186;2022-07-09T09:03:24;7.70;;;6.07;;
58063;SDS011;43851;55.856;37.186;2022-07-09T09:06:03;7.95;;;5.28;;
58063;SDS011;43851;55.856;37.186;2022-07-09T09:08:37;7.75;;;5.68;;
58063;SDS011;43851;55.856;37.186;2022-07-09T09:11:08;7.22;;;5.63;;
58063;SDS011;43851;55.856;37.186;2022-07-09T09:13:45;8.63;;;5.13;;
58063;SDS011;43851;55.856;37.186;2022-07-09T09:16:12;7.38;;;4.65;;
58063;SDS011;43851;55.856;37.186;2022-07-09T09:18:39;6.20;;;5.05;;
58063;SDS011;43851;55.856;37.186;2022-07-09T09:21:06;7.88;;;4.80;;
58063;SDS011;43851;55.856;37.186;2022-07-09T09:23:40;8.40;;;6.05;;
58063;SDS011;43851;55.856;37.186;2022-07-09T09:26:16;6.25;;;5.25;;
58063;SDS011;43851;55.856;37.186;2022-07-09T09:28:48;6.10;;;5.15;;
58063;SDS011;43851;55.856;37.186;2022-07-09T09:31:17;7.00;;;5.20;;
58063;SDS011;43851;55.856;37.186;2022-07-09T09:33:57;6.68;;;5.25;;
58063;SDS011;43851;55.856;37.186;2022-07-09T09:36:35;6.50;;;4.82;;
58063;SDS011;43851;55.856;37.186;2022-07-09T09:39:09;7.80;;;5.05;;
58063;SDS011;43851;55.856;37.186;2022-07-09T09:41:48;6.30;;;4.97;;
58063;SDS011;43851;55.856;37.186;2022-07-09T09:44:19;6.57;;;5.78;;
58063;SDS011;43851;55.856;37.186;2022-07-09T09:46:45;10.73;;;6.13;;
58063;SDS011;43851;55.856;37.186;2022-07-09T09:49:13;8.32;;;5.65;;
58063;SDS011;43851;55.856;37.186;2022-07-09T09:52:03;6.10;;;5.20;;
58063;SDS011;43851;55.856;37.186;2022-07-09T09:54:31;10.05;;;6.45;;
58063;SDS011;43851;55.856;37.186;2022-07-09T09:56:58;7.88;;;6.57;;
58063;SDS011;43851;55.856;37.186;2022-07-09T09:59:25;8.07;;;6.53;;
58063;SDS011;43851;55.856;37.186;2022-07-09T10:01:51;7.85;;;6.28;;
58063;SDS011;43851;55.856;37.186;2022-07-09T10:04:17;7.88;;;6.68;;
58063;SDS011;43851;55.856;37.186;2022-07-09T10:06:44;11.43;;;7.00;;
58063;SDS011;43851;55.856;37.186;2022-07-09T10:09:11;12.75;;;8.52;;
58063;SDS011;43851;55.856;37.186;2022-07-09T10:14:07;10.43;;;6.95;;
58063;SDS011;43851;55.856;37.186;2022-07-09T10:16:40;6.72;;;6.05;;
58063;SDS011;43851;55.856;37.186;2022-07-09T10:19:06;11.90;;;6.60;;
58063;SDS011;43851;55.856;37.186;2022-07-09T10:23:58;8.43;;;6.95;;
58063;SDS011;43851;55.856;37.186;2022-07-09T10:26:34;9.40;;;7.38;;
58063;SDS011;43851;55.856;37.186;2022-07-09T10:29:16;9.85;;;6.93;;
58063;SDS011;43851;55.856;37.186;2022-07-09T10:31:46;7.68;;;6.15;;
58063;SDS011;43851;55.856;37.186;2022-07-09T10:34:59;8.85;;;6.30;;
58063;SDS011;43851;55.856;37.186;2022-07-09T10:37:11;8.88;;;4.93;;
58063;SDS011;43851;55.856;37.186;2022-07-09T10:39:37;9.82;;;5.43;;
58063;SDS011;43851;55.856;37.186;2022-07-09T10:42:04;7.65;;;5.30;;
58063;SDS011;43851;55.856;37.186;2022-07-09T10:44:34;8.80;;;5.15;;
58063;SDS011;43851;55.856;37.186;2022-07-09T10:47:03;5.88;;;4.38;;
58063;SDS011;43851;55.856;37.186;2022-07-09T10:49:30;9.35;;;4.53;;
58063;SDS011;43851;55.856;37.186;2022-07-09T10:51:59;10.18;;;3.95;;
58063;SDS011;43851;55.856;37.186;2022-07-09T10:54:25;10.70;;;3.83;;
58063;SDS011;43851;55.856;37.186;2022-07-09T10:56:52;5.40;;;4.32;;
58063;SDS011;43851;55.856;37.186;2022-07-09T10:59:20;5.72;;;4.18;;
58063;SDS011;43851;55.856;37.186;2022-07-09T11:01:47;7.10;;;3.92;;
58063;SDS011;43851;55.856;37.186;2022-07-09T11:04:28;5.60;;;3.70;;
58063;SDS011;43851;55.856;37.186;2022-07-09T11:06:57;5.18;;;3.90;;
58063;SDS011;43851;55.856;37.186;2022-07-09T11:09:27;5.45;;;3.97;;
58063;SDS011;43851;55.856;37.186;2022-07-09T11:11:56;9.32;;;3.85;;
58063;SDS011;43851;55.856;37.186;2022-07-09T11:14:22;5.55;;;3.97;;
58063;SDS011;43851;55.856;37.186;2022-07-09T11:16:57;6.25;;;3.83;;
58063;SDS011;43851;55.856;37.186;2022-07-09T11:19:29;7.65;;;4.03;;
58063;SDS011;43851;55.856;37.186;2022-07-09T11:22:01;6.05;;;3.60;;
58063;SDS011;43851;55.856;37.186;2022-07-09T11:24:28;5.65;;;4.10;;
58063;SDS011;43851;55.856;37.186;2022-07-09T11:26:54;6.45;;;4.38;;
58063;SDS011;43851;55.856;37.186;2022-07-09T11:29:21;7.13;;;4.75;;
58063;SDS011;43851;55.856;37.186;2022-07-09T11:31:47;7.28;;;5.22;;
58063;SDS011;43851;55.856;37.186;2022-07-09T11:34:14;6.60;;;5.07;;
58063;SDS011;43851;55.856;37.186;2022-07-09T11:36:43;8.07;;;4.85;;
58063;SDS011;43851;55.856;37.186;2022-07-09T11:39:20;8.85;;;5.45;;
58063;SDS011;43851;55.856;37.186;2022-07-09T11:41:58;7.57;;;5.13;;
58063;SDS011;43851;55.856;37.186;2022-07-09T11:44:31;6.20;;;4.38;;
58063;SDS011;43851;55.856;37.186;2022-07-09T11:47:09;7.43;;;4.73;;
58063;SDS011;43851;55.856;37.186;2022-07-09T11:49:37;6.82;;;4.40;;
58063;SDS011;43851;55.856;37.186;2022-07-09T11:57:50;7.00;;;3.90;;
58063;SDS011;43851;55.856;37.186;2022-07-09T12:02:54;8.13;;;4.50;;
58063;SDS011;43851;55.856;37.186;2022-07-09T12:05:24;9.27;;;4.80;;
58063;SDS011;43851;55.856;37.186;2022-07-09T12:07:58;9.82;;;4.55;;
58063;SDS011;43851;55.856;37.186;2022-07-09T12:10:26;8.27;;;4.05;;
58063;SDS011;43851;55.856;37.186;2022-07-09T12:12:55;8.73;;;4.57;;
58063;SDS011;43851;55.856;37.186;2022-07-09T12:15:21;12.23;;;4.72;;
58063;SDS011;43851;55.856;37.186;2022-07-09T12:17:54;10.18;;;4.70;;
58063;SDS011;43851;55.856;37.186;2022-07-09T12:20:25;5.57;;;4.43;;
58063;SDS011;43851;55.856;37.186;2022-07-09T12:22:56;7.65;;;4.63;;
58063;SDS011;43851;55.856;37.186;2022-07-09T12:25:23;6.88;;;4.18;;
58063;SDS011;43851;55.856;37.186;2022-07-09T12:27:49;5.65;;;4.13;;
58063;SDS011;43851;55.856;37.186;2022-07-09T12:30:15;8.32;;;4.35;;
58063;SDS011;43851;55.856;37.186;2022-07-09T12:32:42;7.60;;;4.35;;
58063;SDS011;43851;55.856;37.186;2022-07-09T12:35:24;8.50;;;4.75;;
58063;SDS011;43851;55.856;37.186;2022-07-09T12:37:51;7.55;;;3.72;;
58063;SDS011;43851;55.856;37.186;2022-07-09T12:40:18;6.72;;;4.95;;
58063;SDS011;43851;55.856;37.186;2022-07-09T12:42:44;8.55;;;4.20;;
58063;SDS011;43851;55.856;37.186;2022-07-09T12:45:10;8.93;;;3.85;;
58063;SDS011;43851;55.856;37.186;2022-07-09T12:47:38;4.15;;;3.20;;
58063;SDS011;43851;55.856;37.186;2022-07-09T12:50:04;7.82;;;3.42;;
58063;SDS011;43851;55.856;37.186;2022-07-09T12:52:31;9.70;;;3.92;;
58063;SDS011;43851;55.856;37.186;2022-07-09T12:55:00;8.32;;;3.13;;
58063;SDS011;43851;55.856;37.186;2022-07-09T12:57:28;6.30;;;3.22;;
58063;SDS011;43851;55.856;37.186;2022-07-09T12:59:54;5.80;;;3.00;;
58063;SDS011;43851;55.856;37.186;2022-07-09T13:02:21;4.40;;;2.85;;
58063;SDS011;43851;55.856;37.186;2022-07-09T13:04:47;5.70;;;3.08;;
58063;SDS011;43851;55.856;37.186;2022-07-09T13:07:13;6.15;;;3.55;;
58063;SDS011;43851;55.856;37.186;2022-07-09T13:09:39;4.15;;;2.55;;
58063;SDS011;43851;55.856;37.186;2022-07-09T13:12:05;3.33;;;2.45;;
58063;SDS011;43851;55.856;37.186;2022-07-09T13:14:31;4.35;;;2.90;;
58063;SDS011;43851;55.856;37.186;2022-07-09T13:16:58;3.90;;;2.80;;
58063;SDS011;43851;55.856;37.186;2022-07-09T13:19:24;4.22;;;2.03;;
58063;SDS011;43851;55.856;37.186;2022-07-09T13:21:50;5.07;;;2.13;;
58063;SDS011;43851;55.856;37.186;2022-07-09T13:24:15;5.97;;;2.63;;
58063;SDS011;43851;55.856;37.186;2022-07-09T13:26:41;4.00;;;2.50;;
58063;SDS011;43851;55.856;37.186;2022-07-09T13:29:07;7.97;;;2.90;;
58063;SDS011;43851;55.856;37.186;2022-07-09T13:31:33;4.50;;;2.83;;
58063;SDS011;43851;55.856;37.186;2022-07-09T13:33:59;5.03;;;2.50;;
58063;SDS011;43851;55.856;37.186;2022-07-09T13:36:25;4.63;;;2.90;;
58063;SDS011;43851;55.856;37.186;2022-07-09T13:38:51;4.28;;;2.42;;
58063;SDS011;43851;55.856;37.186;2022-07-09T13:41:17;5.75;;;2.55;;
58063;SDS011;43851;55.856;37.186;2022-07-09T13:43:47;4.80;;;2.67;;
58063;SDS011;43851;55.856;37.186;2022-07-09T13:46:13;4.57;;;2.75;;
58063;SDS011;43851;55.856;37.186;2022-07-09T13:48:38;3.67;;;2.95;;
58063;SDS011;43851;55.856;37.186;2022-07-09T13:51:04;5.97;;;3.30;;
58063;SDS011;43851;55.856;37.186;2022-07-09T13:53:30;7.15;;;2.42;;
58063;SDS011;43851;55.856;37.186;2022-07-09T13:55:58;8.40;;;4.68;;
58063;SDS011;43851;55.856;37.186;2022-07-09T13:58:24;5.53;;;2.78;;
58063;SDS011;43851;55.856;37.186;2022-07-09T14:00:50;7.72;;;3.30;;
58063;SDS011;43851;55.856;37.186;2022-07-09T14:03:17;3.13;;;2.83;;
58063;SDS011;43851;55.856;37.186;2022-07-09T14:05:43;5.70;;;3.08;;
58063;SDS011;43851;55.856;37.186;2022-07-09T14:08:09;5.70;;;3.17;;
58063;SDS011;43851;55.856;37.186;2022-07-09T14:10:35;6.00;;;3.17;;
58063;SDS011;43851;55.856;37.186;2022-07-09T14:13:01;9.88;;;3.13;;
58063;SDS011;43851;55.856;37.186;2022-07-09T14:15:28;5.78;;;3.58;;
58063;SDS011;43851;55.856;37.186;2022-07-09T14:17:54;5.13;;;3.13;;
58063;SDS011;43851;55.856;37.186;2022-07-09T14:20:19;5.97;;;3.17;;
58063;SDS011;43851;55.856;37.186;2022-07-09T14:22:46;6.28;;;2.55;;
58063;SDS011;43851;55.856;37.186;2022-07-09T14:25:12;4.10;;;2.97;;
58063;SDS011;43851;55.856;37.186;2022-07-09T14:27:38;6.65;;;3.00;;
58063;SDS011;43851;55.856;37.186;2022-07-09T14:30:04;4.78;;;3.47;;
58063;SDS011;43851;55.856;37.186;2022-07-09T14:32:30;6.65;;;3.00;;
58063;SDS011;43851;55.856;37.186;2022-07-09T14:34:56;5.40;;;3.33;;
58063;SDS011;43851;55.856;37.186;2022-07-09T14:37:21;5.20;;;3.47;;
58063;SDS011;43851;55.856;37.186;2022-07-09T14:39:47;4.05;;;3.55;;
58063;SDS011;43851;55.856;37.186;2022-07-09T14:42:13;13.40;;;3.80;;
58063;SDS011;43851;55.856;37.186;2022-07-09T14:44:39;7.85;;;3.33;;